sensor_id;sensor_type;location;lat;lon;timestamp;temperature;humidity
12682;DHT22;6405;59.208;18.216;2022-12-07T00:01:20;-4.70;99.90
12682;DHT22;6405;59.208;18.216;2022-12-07T00:03:52;-4.70;99.90
12682;DHT22;6405;59.208;18.216;2022-12-07T00:06:19;-4.80;99.90
12682;DHT22;6405;59.208;18.216;2022-12-07T00:08:47;-4.80;99.90
12682;DHT22;6405;59.208;18.216;2022-12-07T00:11:20;-4.90;99.90
12682;DHT22;6405;59.208;18.216;2022-12-07T00:13:59;-4.90;99.90
12682;DHT22;6405;59.208;18.216;2022-12-07T00:16:29;-4.90;99.90
12682;DHT22;6405;59.208;18.216;2022-12-07T00:18:58;-5.00;99.90
12682;DHT22;6405;59.208;18.216;2022-12-07T00:21:28;-5.00;99.90
12682;DHT22;6405;59.208;18.216;2022-12-07T00:23:54;-5.00;99.90
12682;DHT22;6405;59.208;18.216;2022-12-07T00:26:30;-5.10;99.90
12682;DHT22;6405;59.208;18.216;2022-12-07T00:29:03;-5.10;99.90
12682;DHT22;6405;59.208;18.216;2022-12-07T00:31:34;-5.10;99.90
12682;DHT22;6405;59.208;18.216;2022-12-07T00:34:01;-5.20;99.90
12682;DHT22;6405;59.208;18.216;2022-12-07T00:36:29;-5.20;99.90
12682;DHT22;6405;59.208;18.216;2022-12-07T00:38:58;-5.20;99.90
12682;DHT22;6405;59.208;18.216;2022-12-07T00:41:27;-5.30;99.90
12682;DHT22;6405;59.208;18.216;2022-12-07T00:43:54;-5.30;99.90
12682;DHT22;6405;59.208;18.216;2022-12-07T00:46:21;-5.30;99.90
12682;DHT22;6405;59.208;18.216;2022-12-07T00:48:50;-5.40;99.90
12682;DHT22;6405;59.208;18.216;2022-12-07T00:51:20;-5.40;99.90
12682;DHT22;6405;59.208;18.216;2022-12-07T00:53:47;-5.40;99.90
12682;DHT22;6405;59.208;18.216;2022-12-07T00:56:24;-5.40;99.90
12682;DHT22;6405;59.208;18.216;2022-12-07T00:58:59;-5.40;99.90
12682;DHT22;6405;59.208;18.216;2022-12-07T01:01:30;-5.50;99.90
12682;DHT22;6405;59.208;18.216;2022-12-07T01:03:58;-5.50;99.90
12682;DHT22;6405;59.208;18.216;2022-12-07T01:06:25;-5.50;99.90
12682;DHT22;6405;59.208;18.216;2022-12-07T01:08:53;-5.50;99.90
12682;DHT22;6405;59.208;18.216;2022-12-07T01:11:23;-5.50;99.90
12682;DHT22;6405;59.208;18.216;2022-12-07T01:13:52;-5.50;99.90
12682;DHT22;6405;59.208;18.216;2022-12-07T01:16:20;-5.50;99.90
12682;DHT22;6405;59.208;18.216;2022-12-07T01:18:53;-5.50;99.90
12682;DHT22;6405;59.208;18.216;2022-12-07T01:21:23;-5.50;99.90
12682;DHT22;6405;59.208;18.216;2022-12-07T01:23:53;-5.50;99.90
12682;DHT22;6405;59.208;18.216;2022-12-07T01:26:22;-5.50;99.90
12682;DHT22;6405;59.208;18.216;2022-12-07T01:28:49;-5.60;99.90
12682;DHT22;6405;59.208;18.216;2022-12-07T01:31:19;-5.60;99.90
12682;DHT22;6405;59.208;18.216;2022-12-07T01:33:54;-5.60;99.90
12682;DHT22;6405;59.208;18.216;2022-12-07T01:38:54;-5.60;99.90
12682;DHT22;6405;59.208;18.216;2022-12-07T01:41:26;-5.60;99.90
12682;DHT22;6405;59.208;18.216;2022-12-07T01:47:03;-5.60;99.90
12682;DHT22;6405;59.208;18.216;2022-12-07T01:49:45;-5.60;99.90
12682;DHT22;6405;59.208;18.216;2022-12-07T01:52:26;-5.60;99.90
12682;DHT22;6405;59.208;18.216;2022-12-07T01:55:01;-5.60;99.90
12682;DHT22;6405;59.208;18.216;2022-12-07T01:57:29;-5.60;99.90
12682;DHT22;6405;59.208;18.216;2022-12-07T01:59:57;-5.60;99.90
12682;DHT22;6405;59.208;18.216;2022-12-07T02:02:27;-5.60;99.90
12682;DHT22;6405;59.208;18.216;2022-12-07T02:05:01;-5.50;99.90
12682;DHT22;6405;59.208;18.216;2022-12-07T02:07:29;-5.60;99.90
12682;DHT22;6405;59.208;18.216;2022-12-07T02:09:56;-5.60;99.90
12682;DHT22;6405;59.208;18.216;2022-12-07T02:12:23;-5.50;99.90
12682;DHT22;6405;59.208;18.216;2022-12-07T02:14:51;-5.50;99.90
12682;DHT22;6405;59.208;18.216;2022-12-07T02:17:33;-5.50;99.90
12682;DHT22;6405;59.208;18.216;2022-12-07T02:20:21;-5.50;99.90
12682;DHT22;6405;59.208;18.216;2022-12-07T02:28:36;-5.50;99.90
12682;DHT22;6405;59.208;18.216;2022-12-07T02:31:14;-5.40;99.90
12682;DHT22;6405;59.208;18.216;2022-12-07T02:34:01;-5.40;99.90
12682;DHT22;6405;59.208;18.216;2022-12-07T02:36:34;-5.40;99.90
12682;DHT22;6405;59.208;18.216;2022-12-07T02:39:17;-5.40;99.90
12682;DHT22;6405;59.208;18.216;2022-12-07T02:41:47;-5.40;99.90
12682;DHT22;6405;59.208;18.216;2022-12-07T02:44:18;-5.40;99.90
12682;DHT22;6405;59.208;18.216;2022-12-07T02:47:08;-5.40;99.90
12682;DHT22;6405;59.208;18.216;2022-12-07T02:49:38;-5.40;99.90
12682;DHT22;6405;59.208;18.216;2022-12-07T02:52:06;-5.40;99.90
12682;DHT22;6405;59.208;18.216;2022-12-07T02:54:33;-5.40;99.90
12682;DHT22;6405;59.208;18.216;2022-12-07T03:00:11;-5.40;99.90
12682;DHT22;6405;59.208;18.216;2022-12-07T03:11:12;-5.40;99.90
12682;DHT22;6405;59.208;18.216;2022-12-07T03:13:50;-5.40;99.90
12682;DHT22;6405;59.208;18.216;2022-12-07T03:16:25;-5.40;99.90
12682;DHT22;6405;59.208;18.216;2022-12-07T03:19:08;-5.40;99.90
12682;DHT22;6405;59.208;18.216;2022-12-07T03:21:40;-5.30;99.90
12682;DHT22;6405;59.208;18.216;2022-12-07T03:24:14;-5.30;99.90
12682;DHT22;6405;59.208;18.216;2022-12-07T03:26:46;-5.30;99.90
12682;DHT22;6405;59.208;18.216;2022-12-07T03:29:24;-5.30;99.90
12682;DHT22;6405;59.208;18.216;2022-12-07T03:32:21;-5.30;99.90
12682;DHT22;6405;59.208;18.216;2022-12-07T03:37:48;-5.30;99.90
12682;DHT22;6405;59.208;18.216;2022-12-07T03:40:42;-5.30;99.90
12682;DHT22;6405;59.208;18.216;2022-12-07T03:43:10;-5.30;99.90
12682;DHT22;6405;59.208;18.216;2022-12-07T03:45:40;-5.30;99.90
12682;DHT22;6405;59.208;18.216;2022-12-07T03:48:20;-5.30;99.90
12682;DHT22;6405;59.208;18.216;2022-12-07T03:51:17;-5.30;99.90
12682;DHT22;6405;59.208;18.216;2022-12-07T03:53:58;-5.30;99.90
12682;DHT22;6405;59.208;18.216;2022-12-07T03:56:26;-5.30;99.90
12682;DHT22;6405;59.208;18.216;2022-12-07T03:58:55;-5.30;99.90
12682;DHT22;6405;59.208;18.216;2022-12-07T04:01:24;-5.20;99.90
12682;DHT22;6405;59.208;18.216;2022-12-07T04:03:50;-5.20;99.90
12682;DHT22;6405;59.208;18.216;2022-12-07T04:06:17;-5.20;99.90
12682;DHT22;6405;59.208;18.216;2022-12-07T04:08:45;-5.20;99.90
12682;DHT22;6405;59.208;18.216;2022-12-07T04:11:11;-5.20;99.90
12682;DHT22;6405;59.208;18.216;2022-12-07T04:13:38;-5.20;99.90
12682;DHT22;6405;59.208;18.216;2022-12-07T04:16:24;-5.20;99.90
12682;DHT22;6405;59.208;18.216;2022-12-07T04:18:51;-5.10;99.90
12682;DHT22;6405;59.208;18.216;2022-12-07T04:21:18;-5.10;99.90
12682;DHT22;6405;59.208;18.216;2022-12-07T04:23:45;-5.00;99.90
12682;DHT22;6405;59.208;18.216;2022-12-07T04:26:12;-5.10;99.90
12682;DHT22;6405;59.208;18.216;2022-12-07T04:28:39;-5.00;99.90
12682;DHT22;6405;59.208;18.216;2022-12-07T04:31:07;-5.00;99.90
12682;DHT22;6405;59.208;18.216;2022-12-07T04:33:35;-5.00;99.90
12682;DHT22;6405;59.208;18.216;2022-12-07T04:36:02;-4.90;99.90
12682;DHT22;6405;59.208;18.216;2022-12-07T04:38:30;-4.90;99.90
12682;DHT22;6405;59.208;18.216;2022-12-07T04:41:04;-4.90;99.90
12682;DHT22;6405;59.208;18.216;2022-12-07T04:43:30;-4.90;99.90
12682;DHT22;6405;59.208;18.216;2022-12-07T04:45:57;-4.90;99.90
12682;DHT22;6405;59.208;18.216;2022-12-07T04:48:23;-4.90;99.90
12682;DHT22;6405;59.208;18.216;2022-12-07T04:50:49;-4.90;99.90
12682;DHT22;6405;59.208;18.216;2022-12-07T04:53:17;-4.90;99.90
12682;DHT22;6405;59.208;18.216;2022-12-07T04:55:45;-4.90;99.90
12682;DHT22;6405;59.208;18.216;2022-12-07T04:58:11;-4.90;99.90
12682;DHT22;6405;59.208;18.216;2022-12-07T05:00:38;-4.90;99.90
12682;DHT22;6405;59.208;18.216;2022-12-07T05:03:04;-4.90;99.90
12682;DHT22;6405;59.208;18.216;2022-12-07T05:05:32;-4.90;99.90
12682;DHT22;6405;59.208;18.216;2022-12-07T05:07:58;-4.90;99.90
12682;DHT22;6405;59.208;18.216;2022-12-07T05:10:26;-4.90;99.90
12682;DHT22;6405;59.208;18.216;2022-12-07T05:12:52;-4.90;99.90
12682;DHT22;6405;59.208;18.216;2022-12-07T05:15:18;-4.90;99.90
12682;DHT22;6405;59.208;18.216;2022-12-07T05:17:45;-4.90;99.90
12682;DHT22;6405;59.208;18.216;2022-12-07T05:20:12;-4.90;99.90
12682;DHT22;6405;59.208;18.216;2022-12-07T05:22:39;-4.90;99.90
12682;DHT22;6405;59.208;18.216;2022-12-07T05:25:06;-4.90;99.90
12682;DHT22;6405;59.208;18.216;2022-12-07T05:27:32;-4.90;99.90
12682;DHT22;6405;59.208;18.216;2022-12-07T05:30:01;-4.90;99.90
12682;DHT22;6405;59.208;18.216;2022-12-07T05:32:27;-5.00;99.90
12682;DHT22;6405;59.208;18.216;2022-12-07T05:34:55;-5.00;99.90
12682;DHT22;6405;59.208;18.216;2022-12-07T05:37:21;-5.00;99.90
12682;DHT22;6405;59.208;18.216;2022-12-07T05:39:49;-5.00;99.90
12682;DHT22;6405;59.208;18.216;2022-12-07T05:42:15;-5.00;99.90
12682;DHT22;6405;59.208;18.216;2022-12-07T05:44:45;-5.00;99.90
12682;DHT22;6405;59.208;18.216;2022-12-07T05:47:14;-5.00;99.90
12682;DHT22;6405;59.208;18.216;2022-12-07T05:49:40;-5.00;99.90
12682;DHT22;6405;59.208;18.216;2022-12-07T05:52:07;-5.00;99.90
12682;DHT22;6405;59.208;18.216;2022-12-07T05:54:34;-5.00;99.90
12682;DHT22;6405;59.208;18.216;2022-12-07T05:57:00;-5.00;99.90
12682;DHT22;6405;59.208;18.216;2022-12-07T05:59:26;-5.00;99.90
12682;DHT22;6405;59.208;18.216;2022-12-07T06:01:55;-5.00;99.90
12682;DHT22;6405;59.208;18.216;2022-12-07T06:04:24;-5.00;99.90
12682;DHT22;6405;59.208;18.216;2022-12-07T06:06:51;-5.10;99.90
12682;DHT22;6405;59.208;18.216;2022-12-07T06:09:20;-5.10;99.90
12682;DHT22;6405;59.208;18.216;2022-12-07T06:11:48;-5.10;99.90
12682;DHT22;6405;59.208;18.216;2022-12-07T06:14:41;-5.10;99.90
12682;DHT22;6405;59.208;18.216;2022-12-07T06:17:11;-5.10;99.90
12682;DHT22;6405;59.208;18.216;2022-12-07T06:19:38;-5.20;99.90
12682;DHT22;6405;59.208;18.216;2022-12-07T06:22:08;-5.20;99.90
12682;DHT22;6405;59.208;18.216;2022-12-07T06:24:39;-5.20;99.90
12682;DHT22;6405;59.208;18.216;2022-12-07T06:27:06;-5.20;99.90
12682;DHT22;6405;59.208;18.216;2022-12-07T06:29:33;-5.20;99.90
12682;DHT22;6405;59.208;18.216;2022-12-07T06:32:00;-5.20;99.90
12682;DHT22;6405;59.208;18.216;2022-12-07T06:34:28;-5.20;99.90
12682;DHT22;6405;59.208;18.216;2022-12-07T06:36:55;-5.20;99.90
12682;DHT22;6405;59.208;18.216;2022-12-07T06:39:23;-5.30;99.90
12682;DHT22;6405;59.208;18.216;2022-12-07T06:41:52;-5.30;99.90
12682;DHT22;6405;59.208;18.216;2022-12-07T06:44:21;-5.30;99.90
12682;DHT22;6405;59.208;18.216;2022-12-07T06:46:51;-5.30;99.90
12682;DHT22;6405;59.208;18.216;2022-12-07T06:49:18;-5.30;99.90
12682;DHT22;6405;59.208;18.216;2022-12-07T06:51:45;-5.30;99.90
12682;DHT22;6405;59.208;18.216;2022-12-07T06:54:13;-5.30;99.90
12682;DHT22;6405;59.208;18.216;2022-12-07T06:56:40;-5.30;99.90
12682;DHT22;6405;59.208;18.216;2022-12-07T06:59:07;-5.30;99.90
12682;DHT22;6405;59.208;18.216;2022-12-07T07:01:35;-5.30;99.90
12682;DHT22;6405;59.208;18.216;2022-12-07T07:04:02;-5.30;99.90
12682;DHT22;6405;59.208;18.216;2022-12-07T07:06:28;-5.30;99.90
12682;DHT22;6405;59.208;18.216;2022-12-07T07:08:54;-5.30;99.90
12682;DHT22;6405;59.208;18.216;2022-12-07T07:11:21;-5.30;99.90
12682;DHT22;6405;59.208;18.216;2022-12-07T07:13:48;-5.30;99.90
12682;DHT22;6405;59.208;18.216;2022-12-07T07:16:15;-5.30;99.90
12682;DHT22;6405;59.208;18.216;2022-12-07T07:18:42;-5.30;99.90
12682;DHT22;6405;59.208;18.216;2022-12-07T07:21:10;-5.30;99.90
12682;DHT22;6405;59.208;18.216;2022-12-07T07:23:37;-5.30;99.90
12682;DHT22;6405;59.208;18.216;2022-12-07T07:26:04;-5.30;99.90
12682;DHT22;6405;59.208;18.216;2022-12-07T07:28:31;-5.30;99.90
12682;DHT22;6405;59.208;18.216;2022-12-07T07:30:56;-5.40;99.90
12682;DHT22;6405;59.208;18.216;2022-12-07T07:33:24;-5.40;99.90
12682;DHT22;6405;59.208;18.216;2022-12-07T07:35:53;-5.40;99.90
12682;DHT22;6405;59.208;18.216;2022-12-07T07:38:20;-5.40;99.90
12682;DHT22;6405;59.208;18.216;2022-12-07T07:40:47;-5.40;99.90
12682;DHT22;6405;59.208;18.216;2022-12-07T07:43:13;-5.50;99.90
12682;DHT22;6405;59.208;18.216;2022-12-07T07:45:41;-5.50;99.90
12682;DHT22;6405;59.208;18.216;2022-12-07T07:48:08;-5.50;99.90
12682;DHT22;6405;59.208;18.216;2022-12-07T07:50:35;-5.50;99.90
12682;DHT22;6405;59.208;18.216;2022-12-07T07:53:02;-5.50;99.90
12682;DHT22;6405;59.208;18.216;2022-12-07T07:55:30;-5.50;99.90
12682;DHT22;6405;59.208;18.216;2022-12-07T07:57:55;-5.60;99.90
12682;DHT22;6405;59.208;18.216;2022-12-07T08:00:23;-5.60;99.90
12682;DHT22;6405;59.208;18.216;2022-12-07T08:02:50;-5.50;99.90
12682;DHT22;6405;59.208;18.216;2022-12-07T08:05:18;-5.50;99.90
12682;DHT22;6405;59.208;18.216;2022-12-07T08:07:45;-5.50;99.90
12682;DHT22;6405;59.208;18.216;2022-12-07T08:10:13;-5.50;99.90
12682;DHT22;6405;59.208;18.216;2022-12-07T08:12:41;-5.50;99.90
12682;DHT22;6405;59.208;18.216;2022-12-07T08:15:29;-5.50;99.90
12682;DHT22;6405;59.208;18.216;2022-12-07T08:17:55;-5.50;99.90
12682;DHT22;6405;59.208;18.216;2022-12-07T08:20:22;-5.50;99.90
12682;DHT22;6405;59.208;18.216;2022-12-07T08:22:50;-5.50;99.90
12682;DHT22;6405;59.208;18.216;2022-12-07T08:25:17;-5.50;99.90
12682;DHT22;6405;59.208;18.216;2022-12-07T08:27:44;-5.50;99.90
12682;DHT22;6405;59.208;18.216;2022-12-07T08:30:10;-5.50;99.90
12682;DHT22;6405;59.208;18.216;2022-12-07T08:32:36;-5.50;99.90
12682;DHT22;6405;59.208;18.216;2022-12-07T08:35:04;-5.40;99.90
12682;DHT22;6405;59.208;18.216;2022-12-07T08:37:32;-5.40;99.90
12682;DHT22;6405;59.208;18.216;2022-12-07T08:39:59;-5.30;99.90
12682;DHT22;6405;59.208;18.216;2022-12-07T08:42:27;-5.30;99.90
12682;DHT22;6405;59.208;18.216;2022-12-07T08:44:56;-5.20;99.90
12682;DHT22;6405;59.208;18.216;2022-12-07T08:47:25;-5.10;99.90
12682;DHT22;6405;59.208;18.216;2022-12-07T08:49:54;-5.10;99.90
12682;DHT22;6405;59.208;18.216;2022-12-07T08:52:22;-5.10;99.90
12682;DHT22;6405;59.208;18.216;2022-12-07T08:54:49;-5.00;99.90
12682;DHT22;6405;59.208;18.216;2022-12-07T08:57:17;-4.90;99.90
12682;DHT22;6405;59.208;18.216;2022-12-07T08:59:45;-4.90;99.90
12682;DHT22;6405;59.208;18.216;2022-12-07T09:02:11;-4.80;99.90
12682;DHT22;6405;59.208;18.216;2022-12-07T09:04:38;-4.70;99.90
12682;DHT22;6405;59.208;18.216;2022-12-07T09:07:06;-4.60;99.90
12682;DHT22;6405;59.208;18.216;2022-12-07T09:09:33;-4.60;99.90
12682;DHT22;6405;59.208;18.216;2022-12-07T09:12:00;-4.50;99.90
12682;DHT22;6405;59.208;18.216;2022-12-07T09:14:27;-4.50;99.90
12682;DHT22;6405;59.208;18.216;2022-12-07T09:16:54;-4.40;99.90
12682;DHT22;6405;59.208;18.216;2022-12-07T09:19:21;-4.30;99.90
12682;DHT22;6405;59.208;18.216;2022-12-07T09:21:49;-4.20;99.90
12682;DHT22;6405;59.208;18.216;2022-12-07T09:24:16;-4.20;99.90
12682;DHT22;6405;59.208;18.216;2022-12-07T09:26:42;-4.10;99.90
12682;DHT22;6405;59.208;18.216;2022-12-07T09:29:10;-4.10;99.90
12682;DHT22;6405;59.208;18.216;2022-12-07T09:31:37;-4.10;99.90
12682;DHT22;6405;59.208;18.216;2022-12-07T09:34:03;-4.10;99.90
12682;DHT22;6405;59.208;18.216;2022-12-07T09:36:33;-4.00;99.90
12682;DHT22;6405;59.208;18.216;2022-12-07T09:39:00;-4.00;99.90
12682;DHT22;6405;59.208;18.216;2022-12-07T09:41:27;-3.90;99.90
12682;DHT22;6405;59.208;18.216;2022-12-07T09:44:04;-3.90;99.90
12682;DHT22;6405;59.208;18.216;2022-12-07T09:46:35;-3.90;99.90
12682;DHT22;6405;59.208;18.216;2022-12-07T09:49:03;-3.80;99.90
12682;DHT22;6405;59.208;18.216;2022-12-07T09:51:31;-3.80;99.90
12682;DHT22;6405;59.208;18.216;2022-12-07T09:53:59;-3.70;99.90
12682;DHT22;6405;59.208;18.216;2022-12-07T09:56:28;-3.60;99.90
12682;DHT22;6405;59.208;18.216;2022-12-07T09:59:00;-3.60;99.90
12682;DHT22;6405;59.208;18.216;2022-12-07T10:01:29;-3.50;99.90
12682;DHT22;6405;59.208;18.216;2022-12-07T10:04:09;-3.40;99.90
12682;DHT22;6405;59.208;18.216;2022-12-07T10:06:41;-3.40;99.90
12682;DHT22;6405;59.208;18.216;2022-12-07T10:09:13;-3.30;99.90
12682;DHT22;6405;59.208;18.216;2022-12-07T10:14:29;-3.20;99.90
12682;DHT22;6405;59.208;18.216;2022-12-07T10:16:56;-3.10;99.90
12682;DHT22;6405;59.208;18.216;2022-12-07T10:19:27;-3.10;99.90
12682;DHT22;6405;59.208;18.216;2022-12-07T10:22:10;-3.00;99.90
12682;DHT22;6405;59.208;18.216;2022-12-07T10:24:41;-3.00;99.90
12682;DHT22;6405;59.208;18.216;2022-12-07T10:27:21;-2.90;99.90
12682;DHT22;6405;59.208;18.216;2022-12-07T10:29:53;-2.90;99.90
12682;DHT22;6405;59.208;18.216;2022-12-07T10:34:45;-2.80;99.90
12682;DHT22;6405;59.208;18.216;2022-12-07T10:37:20;-2.80;99.90
12682;DHT22;6405;59.208;18.216;2022-12-07T10:39:54;-2.70;99.90
12682;DHT22;6405;59.208;18.216;2022-12-07T10:42:26;-2.80;99.90
12682;DHT22;6405;59.208;18.216;2022-12-07T10:53:47;-2.70;99.90
12682;DHT22;6405;59.208;18.216;2022-12-07T11:05:42;-2.60;99.90
12682;DHT22;6405;59.208;18.216;2022-12-07T11:13:39;-2.70;99.90
12682;DHT22;6405;59.208;18.216;2022-12-07T11:22:04;-2.60;99.90
12682;DHT22;6405;59.208;18.216;2022-12-07T11:25:19;-2.70;99.90
12682;DHT22;6405;59.208;18.216;2022-12-07T11:28:18;-2.60;99.90
12682;DHT22;6405;59.208;18.216;2022-12-07T11:31:22;-2.70;99.90
12682;DHT22;6405;59.208;18.216;2022-12-07T11:34:00;-2.70;99.90
12682;DHT22;6405;59.208;18.216;2022-12-07T11:39:00;-2.70;99.90
12682;DHT22;6405;59.208;18.216;2022-12-07T11:41:37;-2.60;99.90
12682;DHT22;6405;59.208;18.216;2022-12-07T11:44:11;-2.60;99.90
12682;DHT22;6405;59.208;18.216;2022-12-07T11:47:10;-2.60;99.90
12682;DHT22;6405;59.208;18.216;2022-12-07T11:50:08;-2.60;99.90
12682;DHT22;6405;59.208;18.216;2022-12-07T11:52:43;-2.60;99.90
12682;DHT22;6405;59.208;18.216;2022-12-07T11:55:26;-2.70;99.90
12682;DHT22;6405;59.208;18.216;2022-12-07T11:58:04;-2.60;99.90
12682;DHT22;6405;59.208;18.216;2022-12-07T12:00:34;-2.70;99.90
12682;DHT22;6405;59.208;18.216;2022-12-07T12:03:09;-2.70;99.90
12682;DHT22;6405;59.208;18.216;2022-12-07T12:05:39;-2.70;99.90
12682;DHT22;6405;59.208;18.216;2022-12-07T12:11:08;-2.70;99.90
12682;DHT22;6405;59.208;18.216;2022-12-07T12:14:10;-2.70;99.90
12682;DHT22;6405;59.208;18.216;2022-12-07T12:19:58;-2.60;99.90
12682;DHT22;6405;59.208;18.216;2022-12-07T12:22:38;-2.60;99.90
12682;DHT22;6405;59.208;18.216;2022-12-07T12:25:19;-2.60;99.90
12682;DHT22;6405;59.208;18.216;2022-12-07T12:27:48;-2.60;99.90
12682;DHT22;6405;59.208;18.216;2022-12-07T12:30:36;-2.70;99.90
12682;DHT22;6405;59.208;18.216;2022-12-07T12:33:28;-2.70;99.90
12682;DHT22;6405;59.208;18.216;2022-12-07T12:38:49;-2.70;99.90
12682;DHT22;6405;59.208;18.216;2022-12-07T12:47:38;-2.70;99.90
12682;DHT22;6405;59.208;18.216;2022-12-07T12:50:12;-2.70;99.90
12682;DHT22;6405;59.208;18.216;2022-12-07T12:57:40;-2.80;99.90
12682;DHT22;6405;59.208;18.216;2022-12-07T13:00:17;-2.80;99.90
12682;DHT22;6405;59.208;18.216;2022-12-07T13:02:54;-2.80;99.90
12682;DHT22;6405;59.208;18.216;2022-12-07T13:05:25;-2.80;99.90
12682;DHT22;6405;59.208;18.216;2022-12-07T13:08:19;-2.80;99.90
12682;DHT22;6405;59.208;18.216;2022-12-07T13:10:47;-2.80;99.90
12682;DHT22;6405;59.208;18.216;2022-12-07T13:18:42;-2.90;99.90
12682;DHT22;6405;59.208;18.216;2022-12-07T13:29:16;-3.00;99.90
12682;DHT22;6405;59.208;18.216;2022-12-07T13:34:40;-3.00;99.90
12682;DHT22;6405;59.208;18.216;2022-12-07T13:39:51;-3.10;99.90
12682;DHT22;6405;59.208;18.216;2022-12-07T13:42:29;-3.10;99.90
12682;DHT22;6405;59.208;18.216;2022-12-07T13:44:58;-3.10;99.90
12682;DHT22;6405;59.208;18.216;2022-12-07T13:47:31;-3.10;99.90
12682;DHT22;6405;59.208;18.216;2022-12-07T13:50:00;-3.20;99.90
12682;DHT22;6405;59.208;18.216;2022-12-07T13:52:30;-3.20;99.90
12682;DHT22;6405;59.208;18.216;2022-12-07T13:57:27;-3.20;99.90
12682;DHT22;6405;59.208;18.216;2022-12-07T13:59:54;-3.20;99.90
12682;DHT22;6405;59.208;18.216;2022-12-07T14:02:26;-3.30;99.90
12682;DHT22;6405;59.208;18.216;2022-12-07T14:05:15;-3.30;99.90
12682;DHT22;6405;59.208;18.216;2022-12-07T14:07:56;-3.20;99.90
12682;DHT22;6405;59.208;18.216;2022-12-07T14:10:41;-3.30;99.90
12682;DHT22;6405;59.208;18.216;2022-12-07T14:15:55;-3.30;99.90
12682;DHT22;6405;59.208;18.216;2022-12-07T14:18:30;-3.30;99.90
12682;DHT22;6405;59.208;18.216;2022-12-07T14:21:23;-3.30;99.90
12682;DHT22;6405;59.208;18.216;2022-12-07T14:26:35;-3.30;99.90
12682;DHT22;6405;59.208;18.216;2022-12-07T14:29:31;-3.30;99.90
12682;DHT22;6405;59.208;18.216;2022-12-07T14:32:17;-3.30;99.90
12682;DHT22;6405;59.208;18.216;2022-12-07T14:35:14;-3.40;99.90
12682;DHT22;6405;59.208;18.216;2022-12-07T14:37:43;-3.40;99.90
12682;DHT22;6405;59.208;18.216;2022-12-07T14:40:18;-3.40;99.90
12682;DHT22;6405;59.208;18.216;2022-12-07T14:42:47;-3.40;99.90
12682;DHT22;6405;59.208;18.216;2022-12-07T14:45:22;-3.40;99.90
12682;DHT22;6405;59.208;18.216;2022-12-07T14:47:49;-3.40;99.90
12682;DHT22;6405;59.208;18.216;2022-12-07T14:50:18;-3.40;99.90
12682;DHT22;6405;59.208;18.216;2022-12-07T14:52:55;-3.40;99.90
12682;DHT22;6405;59.208;18.216;2022-12-07T14:55:30;-3.40;99.90
12682;DHT22;6405;59.208;18.216;2022-12-07T14:57:58;-3.40;99.90
12682;DHT22;6405;59.208;18.216;2022-12-07T15:00:26;-3.40;99.90
12682;DHT22;6405;59.208;18.216;2022-12-07T15:02:53;-3.50;99.90
12682;DHT22;6405;59.208;18.216;2022-12-07T15:05:20;-3.50;99.90
12682;DHT22;6405;59.208;18.216;2022-12-07T15:07:48;-3.50;99.90
12682;DHT22;6405;59.208;18.216;2022-12-07T15:10:20;-3.50;99.90
12682;DHT22;6405;59.208;18.216;2022-12-07T15:12:46;-3.50;99.90
12682;DHT22;6405;59.208;18.216;2022-12-07T15:15:13;-3.50;99.90
12682;DHT22;6405;59.208;18.216;2022-12-07T15:17:41;-3.50;99.90
12682;DHT22;6405;59.208;18.216;2022-12-07T15:20:14;-3.60;99.90
12682;DHT22;6405;59.208;18.216;2022-12-07T15:22:43;-3.50;99.90
12682;DHT22;6405;59.208;18.216;2022-12-07T15:25:14;-3.60;99.90
12682;DHT22;6405;59.208;18.216;2022-12-07T15:27:42;-3.60;99.90
12682;DHT22;6405;59.208;18.216;2022-12-07T15:30:10;-3.60;99.90
12682;DHT22;6405;59.208;18.216;2022-12-07T15:32:37;-3.60;99.90
12682;DHT22;6405;59.208;18.216;2022-12-07T15:35:04;-3.60;99.90
12682;DHT22;6405;59.208;18.216;2022-12-07T15:37:31;-3.60;99.90
12682;DHT22;6405;59.208;18.216;2022-12-07T15:39:57;-3.70;99.90
12682;DHT22;6405;59.208;18.216;2022-12-07T15:42:24;-3.70;99.90
12682;DHT22;6405;59.208;18.216;2022-12-07T15:44:52;-3.70;99.90
12682;DHT22;6405;59.208;18.216;2022-12-07T15:47:36;-3.70;99.90
12682;DHT22;6405;59.208;18.216;2022-12-07T15:50:06;-3.70;99.90
12682;DHT22;6405;59.208;18.216;2022-12-07T15:52:32;-3.80;99.90
12682;DHT22;6405;59.208;18.216;2022-12-07T15:55:01;-3.70;99.90
12682;DHT22;6405;59.208;18.216;2022-12-07T15:57:30;-3.80;99.90
12682;DHT22;6405;59.208;18.216;2022-12-07T15:59:58;-3.80;99.90
12682;DHT22;6405;59.208;18.216;2022-12-07T16:02:25;-3.80;99.90
12682;DHT22;6405;59.208;18.216;2022-12-07T16:04:51;-3.80;99.90
12682;DHT22;6405;59.208;18.216;2022-12-07T16:07:19;-3.80;99.90
12682;DHT22;6405;59.208;18.216;2022-12-07T16:09:46;-3.80;99.90
12682;DHT22;6405;59.208;18.216;2022-12-07T16:12:13;-3.80;99.90
12682;DHT22;6405;59.208;18.216;2022-12-07T16:14:40;-3.80;99.90
12682;DHT22;6405;59.208;18.216;2022-12-07T16:17:07;-3.90;99.90
12682;DHT22;6405;59.208;18.216;2022-12-07T16:19:35;-3.90;99.90
12682;DHT22;6405;59.208;18.216;2022-12-07T16:22:02;-3.90;99.90
12682;DHT22;6405;59.208;18.216;2022-12-07T16:24:29;-3.90;99.90
12682;DHT22;6405;59.208;18.216;2022-12-07T16:26:56;-3.90;99.90
12682;DHT22;6405;59.208;18.216;2022-12-07T16:29:22;-3.90;99.90
12682;DHT22;6405;59.208;18.216;2022-12-07T16:31:48;-4.00;99.90
12682;DHT22;6405;59.208;18.216;2022-12-07T16:34:16;-4.00;99.90
12682;DHT22;6405;59.208;18.216;2022-12-07T16:36:43;-4.00;99.90
12682;DHT22;6405;59.208;18.216;2022-12-07T16:39:10;-4.00;99.90
12682;DHT22;6405;59.208;18.216;2022-12-07T16:41:36;-4.00;99.90
12682;DHT22;6405;59.208;18.216;2022-12-07T16:44:05;-4.00;99.90
12682;DHT22;6405;59.208;18.216;2022-12-07T16:46:35;-4.10;99.90
12682;DHT22;6405;59.208;18.216;2022-12-07T16:49:05;-4.00;99.90
12682;DHT22;6405;59.208;18.216;2022-12-07T16:51:32;-4.10;99.90
12682;DHT22;6405;59.208;18.216;2022-12-07T16:54:01;-4.10;99.90
12682;DHT22;6405;59.208;18.216;2022-12-07T16:56:27;-4.10;99.90
12682;DHT22;6405;59.208;18.216;2022-12-07T16:58:54;-4.10;99.90
12682;DHT22;6405;59.208;18.216;2022-12-07T17:01:21;-4.10;99.90
12682;DHT22;6405;59.208;18.216;2022-12-07T17:03:48;-4.10;99.90
12682;DHT22;6405;59.208;18.216;2022-12-07T17:06:26;-4.10;99.90
12682;DHT22;6405;59.208;18.216;2022-12-07T17:09:13;-4.10;99.90
12682;DHT22;6405;59.208;18.216;2022-12-07T17:11:43;-4.10;99.90
12682;DHT22;6405;59.208;18.216;2022-12-07T17:14:10;-4.10;99.90
12682;DHT22;6405;59.208;18.216;2022-12-07T17:16:55;-4.10;99.90
12682;DHT22;6405;59.208;18.216;2022-12-07T17:19:21;-4.10;99.90
12682;DHT22;6405;59.208;18.216;2022-12-07T17:21:48;-4.20;99.90
12682;DHT22;6405;59.208;18.216;2022-12-07T17:24:16;-4.20;99.90
12682;DHT22;6405;59.208;18.216;2022-12-07T17:26:44;-4.20;99.90
12682;DHT22;6405;59.208;18.216;2022-12-07T17:29:12;-4.30;99.90
12682;DHT22;6405;59.208;18.216;2022-12-07T17:31:39;-4.20;99.90
12682;DHT22;6405;59.208;18.216;2022-12-07T17:34:13;-4.20;99.90
12682;DHT22;6405;59.208;18.216;2022-12-07T17:36:40;-4.20;99.90
12682;DHT22;6405;59.208;18.216;2022-12-07T17:39:08;-4.20;99.90
12682;DHT22;6405;59.208;18.216;2022-12-07T17:41:38;-4.30;99.90
12682;DHT22;6405;59.208;18.216;2022-12-07T17:44:27;-4.30;99.90